sensor_id;sensor_type;location;lat;lon;timestamp;P1;durP1;ratioP1;P2;durP2;ratioP2
20721;SDS011;10522;52.198;9.890;2023-02-01T00:01:31;9.70;;;2.40;;
20721;SDS011;10522;52.198;9.890;2023-02-01T00:03:57;14.93;;;3.40;;
20721;SDS011;10522;52.198;9.890;2023-02-01T00:06:22;12.13;;;2.87;;
20721;SDS011;10522;52.198;9.890;2023-02-01T00:08:48;14.10;;;2.93;;
20721;SDS011;10522;52.198;9.890;2023-02-01T00:11:14;8.90;;;2.57;;
20721;SDS011;10522;52.198;9.890;2023-02-01T00:13:40;12.30;;;3.10;;
20721;SDS011;10522;52.198;9.890;2023-02-01T00:18:33;10.00;;;2.70;;
20721;SDS011;10522;52.198;9.890;2023-02-01T00:20:59;13.63;;;2.97;;
20721;SDS011;10522;52.198;9.890;2023-02-01T00:23:24;11.53;;;2.83;;
20721;SDS011;10522;52.198;9.890;2023-02-01T00:25:50;11.67;;;2.70;;
20721;SDS011;10522;52.198;9.890;2023-02-01T00:28:16;17.90;;;3.40;;
20721;SDS011;10522;52.198;9.890;2023-02-01T00:30:41;18.93;;;3.57;;
20721;SDS011;10522;52.198;9.890;2023-02-01T00:33:07;16.20;;;3.40;;
20721;SDS011;10522;52.198;9.890;2023-02-01T00:35:36;19.60;;;3.13;;
20721;SDS011;10522;52.198;9.890;2023-02-01T00:38:02;14.13;;;2.87;;
20721;SDS011;10522;52.198;9.890;2023-02-01T00:40:27;10.07;;;2.60;;
20721;SDS011;10522;52.198;9.890;2023-02-01T00:42:53;15.03;;;3.40;;
20721;SDS011;10522;52.198;9.890;2023-02-01T00:45:19;12.07;;;3.00;;
20721;SDS011;10522;52.198;9.890;2023-02-01T00:47:45;17.70;;;2.77;;
20721;SDS011;10522;52.198;9.890;2023-02-01T00:50:10;8.97;;;2.97;;
20721;SDS011;10522;52.198;9.890;2023-02-01T00:52:36;6.87;;;1.70;;
20721;SDS011;10522;52.198;9.890;2023-02-01T00:55:02;16.63;;;3.43;;
20721;SDS011;10522;52.198;9.890;2023-02-01T00:57:27;42.00;;;4.10;;
20721;SDS011;10522;52.198;9.890;2023-02-01T00:59:53;20.73;;;3.60;;
20721;SDS011;10522;52.198;9.890;2023-02-01T01:02:19;14.60;;;3.07;;
20721;SDS011;10522;52.198;9.890;2023-02-01T01:04:44;11.10;;;2.57;;
20721;SDS011;10522;52.198;9.890;2023-02-01T01:07:10;13.97;;;3.13;;
20721;SDS011;10522;52.198;9.890;2023-02-01T01:09:35;8.63;;;2.67;;
20721;SDS011;10522;52.198;9.890;2023-02-01T01:12:01;12.23;;;3.93;;
20721;SDS011;10522;52.198;9.890;2023-02-01T01:14:28;21.67;;;3.80;;
20721;SDS011;10522;52.198;9.890;2023-02-01T01:16:54;16.80;;;4.20;;
20721;SDS011;10522;52.198;9.890;2023-02-01T01:19:20;15.87;;;2.60;;
20721;SDS011;10522;52.198;9.890;2023-02-01T01:21:45;19.60;;;3.57;;
20721;SDS011;10522;52.198;9.890;2023-02-01T01:24:11;14.20;;;2.13;;
20721;SDS011;10522;52.198;9.890;2023-02-01T01:26:37;8.63;;;2.60;;
20721;SDS011;10522;52.198;9.890;2023-02-01T01:29:02;12.40;;;2.90;;
20721;SDS011;10522;52.198;9.890;2023-02-01T01:31:29;23.70;;;3.50;;
20721;SDS011;10522;52.198;9.890;2023-02-01T01:33:56;16.43;;;3.20;;
20721;SDS011;10522;52.198;9.890;2023-02-01T01:36:24;14.73;;;3.00;;
20721;SDS011;10522;52.198;9.890;2023-02-01T01:38:51;19.40;;;3.13;;
20721;SDS011;10522;52.198;9.890;2023-02-01T01:41:29;24.83;;;3.83;;
20721;SDS011;10522;52.198;9.890;2023-02-01T01:43:57;14.40;;;3.80;;
20721;SDS011;10522;52.198;9.890;2023-02-01T01:46:28;14.70;;;3.03;;
20721;SDS011;10522;52.198;9.890;2023-02-01T01:51:31;16.00;;;2.63;;
20721;SDS011;10522;52.198;9.890;2023-02-01T01:54:16;17.43;;;3.10;;
20721;SDS011;10522;52.198;9.890;2023-02-01T01:56:50;13.10;;;2.43;;
20721;SDS011;10522;52.198;9.890;2023-02-01T01:59:20;14.60;;;3.80;;
20721;SDS011;10522;52.198;9.890;2023-02-01T02:01:48;16.97;;;3.27;;
20721;SDS011;10522;52.198;9.890;2023-02-01T02:04:14;13.13;;;3.03;;
20721;SDS011;10522;52.198;9.890;2023-02-01T02:06:48;21.40;;;3.10;;
20721;SDS011;10522;52.198;9.890;2023-02-01T02:09:24;15.33;;;3.20;;
20721;SDS011;10522;52.198;9.890;2023-02-01T02:11:50;11.27;;;3.03;;
20721;SDS011;10522;52.198;9.890;2023-02-01T02:14:16;9.63;;;2.40;;
20721;SDS011;10522;52.198;9.890;2023-02-01T02:19:50;22.90;;;3.87;;
20721;SDS011;10522;52.198;9.890;2023-02-01T02:36:28;9.27;;;3.10;;
20721;SDS011;10522;52.198;9.890;2023-02-01T02:39:17;16.63;;;3.50;;
20721;SDS011;10522;52.198;9.890;2023-02-01T02:41:59;19.00;;;2.87;;
20721;SDS011;10522;52.198;9.890;2023-02-01T02:53:21;18.23;;;2.53;;
20721;SDS011;10522;52.198;9.890;2023-02-01T02:56:14;12.80;;;3.27;;
20721;SDS011;10522;52.198;9.890;2023-02-01T02:59:00;14.90;;;2.47;;
20721;SDS011;10522;52.198;9.890;2023-02-01T03:01:46;15.17;;;2.80;;
20721;SDS011;10522;52.198;9.890;2023-02-01T03:04:32;14.37;;;3.43;;
20721;SDS011;10522;52.198;9.890;2023-02-01T03:07:09;13.67;;;4.57;;
20721;SDS011;10522;52.198;9.890;2023-02-01T03:09:55;13.27;;;2.97;;
20721;SDS011;10522;52.198;9.890;2023-02-01T03:12:21;18.57;;;3.27;;
20721;SDS011;10522;52.198;9.890;2023-02-01T03:15:07;20.13;;;3.47;;
20721;SDS011;10522;52.198;9.890;2023-02-01T03:17:37;13.93;;;4.23;;
20721;SDS011;10522;52.198;9.890;2023-02-01T03:20:06;15.77;;;3.80;;
20721;SDS011;10522;52.198;9.890;2023-02-01T03:22:35;16.33;;;3.03;;
20721;SDS011;10522;52.198;9.890;2023-02-01T03:25:07;12.40;;;3.37;;
20721;SDS011;10522;52.198;9.890;2023-02-01T03:27:47;20.67;;;4.90;;
20721;SDS011;10522;52.198;9.890;2023-02-01T03:32:48;11.20;;;3.50;;
20721;SDS011;10522;52.198;9.890;2023-02-01T03:38:01;17.43;;;3.97;;
20721;SDS011;10522;52.198;9.890;2023-02-01T03:40:34;18.03;;;4.10;;
20721;SDS011;10522;52.198;9.890;2023-02-01T03:43:01;18.93;;;5.63;;
20721;SDS011;10522;52.198;9.890;2023-02-01T03:45:36;16.23;;;3.47;;
20721;SDS011;10522;52.198;9.890;2023-02-01T03:48:07;14.77;;;3.67;;
20721;SDS011;10522;52.198;9.890;2023-02-01T03:50:35;19.47;;;5.37;;
20721;SDS011;10522;52.198;9.890;2023-02-01T03:53:05;13.97;;;3.00;;
20721;SDS011;10522;52.198;9.890;2023-02-01T03:55:42;17.30;;;3.47;;
20721;SDS011;10522;52.198;9.890;2023-02-01T03:58:12;18.27;;;3.67;;
20721;SDS011;10522;52.198;9.890;2023-02-01T04:00:50;12.30;;;3.57;;
20721;SDS011;10522;52.198;9.890;2023-02-01T04:03:17;18.53;;;4.10;;
20721;SDS011;10522;52.198;9.890;2023-02-01T04:05:43;14.80;;;2.97;;
20721;SDS011;10522;52.198;9.890;2023-02-01T04:08:08;14.50;;;3.17;;
20721;SDS011;10522;52.198;9.890;2023-02-01T04:10:34;19.23;;;3.80;;
20721;SDS011;10522;52.198;9.890;2023-02-01T04:13:00;20.00;;;4.23;;
20721;SDS011;10522;52.198;9.890;2023-02-01T04:15:25;22.67;;;4.40;;
20721;SDS011;10522;52.198;9.890;2023-02-01T04:17:51;18.53;;;4.50;;
20721;SDS011;10522;52.198;9.890;2023-02-01T04:20:16;12.13;;;3.70;;
20721;SDS011;10522;52.198;9.890;2023-02-01T04:22:43;18.97;;;4.13;;
20721;SDS011;10522;52.198;9.890;2023-02-01T04:25:08;18.30;;;4.53;;
20721;SDS011;10522;52.198;9.890;2023-02-01T04:27:34;10.60;;;3.67;;
20721;SDS011;10522;52.198;9.890;2023-02-01T04:30:00;12.83;;;3.20;;
20721;SDS011;10522;52.198;9.890;2023-02-01T04:32:26;17.67;;;4.23;;
20721;SDS011;10522;52.198;9.890;2023-02-01T04:34:51;18.90;;;3.67;;
20721;SDS011;10522;52.198;9.890;2023-02-01T04:37:17;17.13;;;3.90;;
20721;SDS011;10522;52.198;9.890;2023-02-01T04:39:43;16.70;;;3.70;;
20721;SDS011;10522;52.198;9.890;2023-02-01T04:42:08;19.57;;;4.03;;
20721;SDS011;10522;52.198;9.890;2023-02-01T04:44:34;11.17;;;3.03;;
20721;SDS011;10522;52.198;9.890;2023-02-01T04:47:01;18.00;;;4.03;;
20721;SDS011;10522;52.198;9.890;2023-02-01T04:49:27;17.83;;;3.60;;
20721;SDS011;10522;52.198;9.890;2023-02-01T04:51:53;14.70;;;4.63;;
20721;SDS011;10522;52.198;9.890;2023-02-01T04:54:18;10.57;;;3.30;;
20721;SDS011;10522;52.198;9.890;2023-02-01T04:56:44;13.60;;;3.77;;
20721;SDS011;10522;52.198;9.890;2023-02-01T04:59:10;21.93;;;4.70;;
20721;SDS011;10522;52.198;9.890;2023-02-01T05:01:36;19.40;;;4.27;;
20721;SDS011;10522;52.198;9.890;2023-02-01T05:04:02;22.37;;;5.03;;
20721;SDS011;10522;52.198;9.890;2023-02-01T05:06:28;18.10;;;4.00;;
20721;SDS011;10522;52.198;9.890;2023-02-01T05:08:54;14.03;;;4.30;;
20721;SDS011;10522;52.198;9.890;2023-02-01T05:11:19;18.20;;;2.57;;
20721;SDS011;10522;52.198;9.890;2023-02-01T05:14:03;10.97;;;3.40;;
20721;SDS011;10522;52.198;9.890;2023-02-01T05:16:29;10.50;;;3.90;;
20721;SDS011;10522;52.198;9.890;2023-02-01T05:18:54;15.10;;;3.93;;
20721;SDS011;10522;52.198;9.890;2023-02-01T05:21:20;13.33;;;4.03;;
20721;SDS011;10522;52.198;9.890;2023-02-01T05:23:46;13.87;;;3.57;;
20721;SDS011;10522;52.198;9.890;2023-02-01T05:26:30;16.83;;;3.53;;
20721;SDS011;10522;52.198;9.890;2023-02-01T05:28:56;9.57;;;2.73;;
20721;SDS011;10522;52.198;9.890;2023-02-01T05:31:22;16.00;;;4.00;;
20721;SDS011;10522;52.198;9.890;2023-02-01T05:33:48;9.57;;;2.40;;
20721;SDS011;10522;52.198;9.890;2023-02-01T05:36:14;17.90;;;4.33;;
20721;SDS011;10522;52.198;9.890;2023-02-01T05:38:40;16.23;;;3.90;;
20721;SDS011;10522;52.198;9.890;2023-02-01T05:41:05;17.67;;;3.90;;
20721;SDS011;10522;52.198;9.890;2023-02-01T05:43:31;11.50;;;3.23;;
20721;SDS011;10522;52.198;9.890;2023-02-01T05:45:57;13.00;;;3.47;;
20721;SDS011;10522;52.198;9.890;2023-02-01T05:48:22;12.50;;;3.40;;
20721;SDS011;10522;52.198;9.890;2023-02-01T05:50:48;15.27;;;3.63;;
20721;SDS011;10522;52.198;9.890;2023-02-01T05:53:13;22.23;;;3.80;;
20721;SDS011;10522;52.198;9.890;2023-02-01T05:55:39;7.63;;;4.43;;
20721;SDS011;10522;52.198;9.890;2023-02-01T05:58:06;8.83;;;2.40;;
20721;SDS011;10522;52.198;9.890;2023-02-01T06:00:31;18.93;;;4.27;;
20721;SDS011;10522;52.198;9.890;2023-02-01T06:02:57;7.70;;;3.27;;
20721;SDS011;10522;52.198;9.890;2023-02-01T06:05:23;12.60;;;2.77;;
20721;SDS011;10522;52.198;9.890;2023-02-01T06:07:49;7.17;;;2.83;;
20721;SDS011;10522;52.198;9.890;2023-02-01T06:10:15;16.67;;;3.33;;
20721;SDS011;10522;52.198;9.890;2023-02-01T06:12:41;10.90;;;2.37;;
20721;SDS011;10522;52.198;9.890;2023-02-01T06:15:07;16.93;;;2.97;;
20721;SDS011;10522;52.198;9.890;2023-02-01T06:17:33;10.73;;;3.10;;
20721;SDS011;10522;52.198;9.890;2023-02-01T06:19:59;12.03;;;3.13;;
20721;SDS011;10522;52.198;9.890;2023-02-01T06:22:24;13.90;;;4.27;;
20721;SDS011;10522;52.198;9.890;2023-02-01T06:24:50;11.27;;;3.07;;
20721;SDS011;10522;52.198;9.890;2023-02-01T06:27:16;9.23;;;3.00;;
20721;SDS011;10522;52.198;9.890;2023-02-01T06:29:41;8.83;;;2.40;;
20721;SDS011;10522;52.198;9.890;2023-02-01T06:32:07;6.87;;;2.67;;
20721;SDS011;10522;52.198;9.890;2023-02-01T06:34:32;8.27;;;3.23;;
20721;SDS011;10522;52.198;9.890;2023-02-01T06:36:59;6.13;;;2.50;;
20721;SDS011;10522;52.198;9.890;2023-02-01T06:39:24;6.30;;;2.30;;
20721;SDS011;10522;52.198;9.890;2023-02-01T06:41:52;7.63;;;1.90;;
20721;SDS011;10522;52.198;9.890;2023-02-01T06:44:17;8.73;;;2.33;;
20721;SDS011;10522;52.198;9.890;2023-02-01T06:46:43;9.33;;;3.30;;
20721;SDS011;10522;52.198;9.890;2023-02-01T06:49:09;4.57;;;2.30;;
20721;SDS011;10522;52.198;9.890;2023-02-01T06:51:34;12.43;;;3.13;;
20721;SDS011;10522;52.198;9.890;2023-02-01T06:54:00;8.53;;;2.27;;
20721;SDS011;10522;52.198;9.890;2023-02-01T06:56:26;13.63;;;4.07;;
20721;SDS011;10522;52.198;9.890;2023-02-01T06:58:51;6.87;;;2.27;;
20721;SDS011;10522;52.198;9.890;2023-02-01T07:01:17;11.97;;;3.13;;
20721;SDS011;10522;52.198;9.890;2023-02-01T07:03:46;5.20;;;1.83;;
20721;SDS011;10522;52.198;9.890;2023-02-01T07:06:12;16.27;;;2.63;;
20721;SDS011;10522;52.198;9.890;2023-02-01T07:08:38;7.33;;;2.63;;
20721;SDS011;10522;52.198;9.890;2023-02-01T07:11:08;9.73;;;2.40;;
20721;SDS011;10522;52.198;9.890;2023-02-01T07:13:35;10.53;;;3.57;;
20721;SDS011;10522;52.198;9.890;2023-02-01T07:16:01;11.70;;;3.23;;
20721;SDS011;10522;52.198;9.890;2023-02-01T07:18:29;9.10;;;2.50;;
20721;SDS011;10522;52.198;9.890;2023-02-01T07:20:55;25.30;;;3.50;;
20721;SDS011;10522;52.198;9.890;2023-02-01T07:23:22;12.57;;;3.60;;
20721;SDS011;10522;52.198;9.890;2023-02-01T07:25:48;11.07;;;3.80;;
20721;SDS011;10522;52.198;9.890;2023-02-01T07:28:14;10.77;;;2.53;;
20721;SDS011;10522;52.198;9.890;2023-02-01T07:30:39;14.70;;;3.23;;
20721;SDS011;10522;52.198;9.890;2023-02-01T07:33:06;10.70;;;3.27;;
20721;SDS011;10522;52.198;9.890;2023-02-01T07:35:32;6.67;;;2.67;;
20721;SDS011;10522;52.198;9.890;2023-02-01T07:37:57;13.30;;;2.70;;
20721;SDS011;10522;52.198;9.890;2023-02-01T07:40:24;8.47;;;2.63;;
20721;SDS011;10522;52.198;9.890;2023-02-01T07:42:54;14.87;;;3.60;;
20721;SDS011;10522;52.198;9.890;2023-02-01T07:45:20;12.60;;;2.27;;
20721;SDS011;10522;52.198;9.890;2023-02-01T07:47:46;11.17;;;4.40;;
20721;SDS011;10522;52.198;9.890;2023-02-01T07:50:12;15.67;;;3.27;;
20721;SDS011;10522;52.198;9.890;2023-02-01T07:52:37;8.80;;;2.57;;
20721;SDS011;10522;52.198;9.890;2023-02-01T07:55:05;8.47;;;3.20;;
20721;SDS011;10522;52.198;9.890;2023-02-01T07:57:31;11.23;;;2.50;;
20721;SDS011;10522;52.198;9.890;2023-02-01T07:59:56;8.73;;;3.03;;
20721;SDS011;10522;52.198;9.890;2023-02-01T08:02:40;16.17;;;3.47;;
20721;SDS011;10522;52.198;9.890;2023-02-01T08:05:06;14.73;;;2.40;;
20721;SDS011;10522;52.198;9.890;2023-02-01T08:07:32;15.60;;;3.87;;
20721;SDS011;10522;52.198;9.890;2023-02-01T08:09:58;11.63;;;2.60;;
20721;SDS011;10522;52.198;9.890;2023-02-01T08:12:24;11.83;;;3.13;;
20721;SDS011;10522;52.198;9.890;2023-02-01T08:14:51;11.73;;;3.57;;
20721;SDS011;10522;52.198;9.890;2023-02-01T08:17:18;12.50;;;2.97;;
20721;SDS011;10522;52.198;9.890;2023-02-01T08:19:44;8.70;;;2.77;;
20721;SDS011;10522;52.198;9.890;2023-02-01T08:22:09;15.60;;;4.13;;
20721;SDS011;10522;52.198;9.890;2023-02-01T08:24:35;6.60;;;2.60;;
20721;SDS011;10522;52.198;9.890;2023-02-01T08:27:02;12.90;;;3.47;;
20721;SDS011;10522;52.198;9.890;2023-02-01T08:29:28;15.23;;;2.63;;
20721;SDS011;10522;52.198;9.890;2023-02-01T08:31:54;6.73;;;1.90;;
20721;SDS011;10522;52.198;9.890;2023-02-01T08:34:19;11.27;;;3.07;;
20721;SDS011;10522;52.198;9.890;2023-02-01T08:36:45;8.83;;;2.50;;
20721;SDS011;10522;52.198;9.890;2023-02-01T08:39:11;14.23;;;3.20;;
20721;SDS011;10522;52.198;9.890;2023-02-01T08:41:37;15.33;;;3.67;;
20721;SDS011;10522;52.198;9.890;2023-02-01T08:44:03;8.90;;;2.87;;
20721;SDS011;10522;52.198;9.890;2023-02-01T08:46:29;13.07;;;2.07;;
20721;SDS011;10522;52.198;9.890;2023-02-01T08:48:54;11.63;;;3.87;;
20721;SDS011;10522;52.198;9.890;2023-02-01T08:51:21;9.50;;;2.17;;
20721;SDS011;10522;52.198;9.890;2023-02-01T08:53:47;7.83;;;2.70;;
20721;SDS011;10522;52.198;9.890;2023-02-01T08:56:14;9.23;;;2.60;;
20721;SDS011;10522;52.198;9.890;2023-02-01T08:58:41;9.70;;;2.93;;
20721;SDS011;10522;52.198;9.890;2023-02-01T09:01:07;15.20;;;2.83;;
20721;SDS011;10522;52.198;9.890;2023-02-01T09:03:36;7.73;;;1.80;;
20721;SDS011;10522;52.198;9.890;2023-02-01T09:06:02;6.93;;;2.10;;
20721;SDS011;10522;52.198;9.890;2023-02-01T09:08:30;4.30;;;1.87;;
20721;SDS011;10522;52.198;9.890;2023-02-01T09:11:06;9.00;;;1.87;;
20721;SDS011;10522;52.198;9.890;2023-02-01T09:13:33;10.93;;;2.17;;
20721;SDS011;10522;52.198;9.890;2023-02-01T09:16:00;10.20;;;2.57;;
20721;SDS011;10522;52.198;9.890;2023-02-01T09:18:26;11.17;;;2.40;;
20721;SDS011;10522;52.198;9.890;2023-02-01T09:20:52;10.20;;;3.27;;
20721;SDS011;10522;52.198;9.890;2023-02-01T09:23:17;7.43;;;2.27;;
20721;SDS011;10522;52.198;9.890;2023-02-01T09:25:45;8.63;;;1.97;;
20721;SDS011;10522;52.198;9.890;2023-02-01T09:28:10;16.60;;;3.30;;
20721;SDS011;10522;52.198;9.890;2023-02-01T09:30:36;9.93;;;2.13;;
20721;SDS011;10522;52.198;9.890;2023-02-01T09:33:02;8.00;;;1.97;;
20721;SDS011;10522;52.198;9.890;2023-02-01T09:35:28;9.43;;;2.30;;
20721;SDS011;10522;52.198;9.890;2023-02-01T09:37:54;7.57;;;2.30;;
20721;SDS011;10522;52.198;9.890;2023-02-01T09:40:20;12.97;;;2.77;;
20721;SDS011;10522;52.198;9.890;2023-02-01T09:42:54;16.80;;;3.10;;
20721;SDS011;10522;52.198;9.890;2023-02-01T09:48:14;13.43;;;2.77;;
20721;SDS011;10522;52.198;9.890;2023-02-01T09:50:43;11.20;;;3.27;;
20721;SDS011;10522;52.198;9.890;2023-02-01T09:55:47;11.07;;;2.57;;
20721;SDS011;10522;52.198;9.890;2023-02-01T09:58:16;4.13;;;2.17;;
20721;SDS011;10522;52.198;9.890;2023-02-01T10:00:55;15.77;;;2.43;;
20721;SDS011;10522;52.198;9.890;2023-02-01T10:03:24;9.70;;;3.27;;
20721;SDS011;10522;52.198;9.890;2023-02-01T10:06:06;5.33;;;2.50;;
20721;SDS011;10522;52.198;9.890;2023-02-01T10:11:34;11.90;;;2.67;;
20721;SDS011;10522;52.198;9.890;2023-02-01T10:22:43;8.70;;;2.77;;
20721;SDS011;10522;52.198;9.890;2023-02-01T10:27:38;7.47;;;1.83;;
20721;SDS011;10522;52.198;9.890;2023-02-01T10:32:48;13.43;;;2.67;;
20721;SDS011;10522;52.198;9.890;2023-02-01T10:35:22;8.80;;;2.17;;
20721;SDS011;10522;52.198;9.890;2023-02-01T10:37:53;19.40;;;3.03;;
20721;SDS011;10522;52.198;9.890;2023-02-01T10:40:21;14.27;;;2.53;;
20721;SDS011;10522;52.198;9.890;2023-02-01T10:42:53;9.27;;;3.03;;
20721;SDS011;10522;52.198;9.890;2023-02-01T10:45:23;10.07;;;2.07;;
20721;SDS011;10522;52.198;9.890;2023-02-01T10:47:54;10.93;;;2.30;;
20721;SDS011;10522;52.198;9.890;2023-02-01T10:53:18;25.03;;;2.73;;
20721;SDS011;10522;52.198;9.890;2023-02-01T10:55:50;7.03;;;1.90;;
20721;SDS011;10522;52.198;9.890;2023-02-01T10:58:21;10.33;;;1.90;;
20721;SDS011;10522;52.198;9.890;2023-02-01T11:00:54;14.63;;;3.50;;
20721;SDS011;10522;52.198;9.890;2023-02-01T11:05:58;10.57;;;1.90;;
20721;SDS011;10522;52.198;9.890;2023-02-01T11:08:25;13.77;;;2.70;;
20721;SDS011;10522;52.198;9.890;2023-02-01T11:11:02;16.67;;;2.63;;
20721;SDS011;10522;52.198;9.890;2023-02-01T11:13:31;3.10;;;1.33;;
20721;SDS011;10522;52.198;9.890;2023-02-01T11:16:02;8.90;;;2.13;;
20721;SDS011;10522;52.198;9.890;2023-02-01T11:18:30;17.87;;;2.67;;
20721;SDS011;10522;52.198;9.890;2023-02-01T11:20:59;7.47;;;1.87;;
20721;SDS011;10522;52.198;9.890;2023-02-01T11:23:26;12.37;;;2.40;;
20721;SDS011;10522;52.198;9.890;2023-02-01T11:25:55;15.70;;;2.70;;
20721;SDS011;10522;52.198;9.890;2023-02-01T11:28:31;10.17;;;2.70;;
20721;SDS011;10522;52.198;9.890;2023-02-01T11:31:02;13.57;;;2.80;;
20721;SDS011;10522;52.198;9.890;2023-02-01T11:33:34;14.60;;;2.83;;
20721;SDS011;10522;52.198;9.890;2023-02-01T11:36:09;12.23;;;3.07;;
20721;SDS011;10522;52.198;9.890;2023-02-01T11:38:39;11.40;;;2.77;;
20721;SDS011;10522;52.198;9.890;2023-02-01T11:41:24;6.97;;;2.07;;
20721;SDS011;10522;52.198;9.890;2023-02-01T11:43:58;7.37;;;2.07;;
20721;SDS011;10522;52.198;9.890;2023-02-01T11:46:32;14.13;;;2.60;;
20721;SDS011;10522;52.198;9.890;2023-02-01T11:49:13;9.97;;;2.47;;
20721;SDS011;10522;52.198;9.890;2023-02-01T11:52:14;11.30;;;2.17;;
20721;SDS011;10522;52.198;9.890;2023-02-01T11:54:46;7.40;;;3.27;;
20721;SDS011;10522;52.198;9.890;2023-02-01T11:57:39;15.90;;;3.47;;
20721;SDS011;10522;52.198;9.890;2023-02-01T12:05:59;11.40;;;2.47;;
20721;SDS011;10522;52.198;9.890;2023-02-01T12:11:30;15.63;;;3.53;;
20721;SDS011;10522;52.198;9.890;2023-02-01T12:16:55;12.17;;;2.83;;
20721;SDS011;10522;52.198;9.890;2023-02-01T12:19:50;13.70;;;2.57;;
20721;SDS011;10522;52.198;9.890;2023-02-01T12:28:08;17.27;;;3.13;;
20721;SDS011;10522;52.198;9.890;2023-02-01T12:30:54;21.93;;;2.73;;
20721;SDS011;10522;52.198;9.890;2023-02-01T12:46:49;13.43;;;3.90;;
20721;SDS011;10522;52.198;9.890;2023-02-01T12:49:26;9.83;;;2.90;;
20721;SDS011;10522;52.198;9.890;2023-02-01T12:52:04;12.87;;;2.67;;
20721;SDS011;10522;52.198;9.890;2023-02-01T12:55:20;10.57;;;2.27;;
20721;SDS011;10522;52.198;9.890;2023-02-01T12:57:30;9.67;;;2.10;;
20721;SDS011;10522;52.198;9.890;2023-02-01T13:00:05;9.07;;;2.47;;
20721;SDS011;10522;52.198;9.890;2023-02-01T13:02:42;12.20;;;2.03;;
20721;SDS011;10522;52.198;9.890;2023-02-01T13:05:20;13.33;;;2.90;;
20721;SDS011;10522;52.198;9.890;2023-02-01T13:07:53;9.77;;;2.90;;
20721;SDS011;10522;52.198;9.890;2023-02-01T13:10:29;6.13;;;2.17;;
20721;SDS011;10522;52.198;9.890;2023-02-01T13:12:59;10.20;;;3.00;;
20721;SDS011;10522;52.198;9.890;2023-02-01T13:15:42;11.97;;;3.17;;
20721;SDS011;10522;52.198;9.890;2023-02-01T13:18:14;18.00;;;3.97;;
20721;SDS011;10522;52.198;9.890;2023-02-01T13:20:47;10.30;;;2.17;;
20721;SDS011;10522;52.198;9.890;2023-02-01T13:23:31;11.37;;;2.93;;
20721;SDS011;10522;52.198;9.890;2023-02-01T13:26:00;6.37;;;2.40;;
20721;SDS011;10522;52.198;9.890;2023-02-01T13:31:29;4.37;;;2.00;;
20721;SDS011;10522;52.198;9.890;2023-02-01T13:37:35;13.07;;;2.33;;
20721;SDS011;10522;52.198;9.890;2023-02-01T13:40:16;6.57;;;2.10;;
20721;SDS011;10522;52.198;9.890;2023-02-01T13:42:50;3.57;;;2.13;;
20721;SDS011;10522;52.198;9.890;2023-02-01T13:45:22;10.13;;;2.47;;
20721;SDS011;10522;52.198;9.890;2023-02-01T13:47:52;4.53;;;1.63;;
20721;SDS011;10522;52.198;9.890;2023-02-01T13:50:25;3.93;;;2.10;;
20721;SDS011;10522;52.198;9.890;2023-02-01T13:52:57;3.90;;;2.33;;
20721;SDS011;10522;52.198;9.890;2023-02-01T13:55:32;9.67;;;2.57;;
20721;SDS011;10522;52.198;9.890;2023-02-01T13:58:02;2.23;;;1.70;;
20721;SDS011;10522;52.198;9.890;2023-02-01T14:04:00;0.87;;;0.50;;
20721;SDS011;10522;52.198;9.890;2023-02-01T14:16:44;0.40;;;0.40;;
20721;SDS011;10522;52.198;9.890;2023-02-01T14:19:26;2.00;;;0.63;;
20721;SDS011;10522;52.198;9.890;2023-02-01T14:21:59;2.10;;;0.70;;
20721;SDS011;10522;52.198;9.890;2023-02-01T14:24:52;2.33;;;0.50;;
20721;SDS011;10522;52.198;9.890;2023-02-01T14:27:21;0.47;;;0.47;;
20721;SDS011;10522;52.198;9.890;2023-02-01T14:29:56;0.50;;;0.40;;
20721;SDS011;10522;52.198;9.890;2023-02-01T14:32:25;1.07;;;0.40;;
20721;SDS011;10522;52.198;9.890;2023-02-01T14:34:57;0.40;;;0.40;;
20721;SDS011;10522;52.198;9.890;2023-02-01T14:37:29;1.30;;;1.03;;
20721;SDS011;10522;52.198;9.890;2023-02-01T14:40:04;7.63;;;0.50;;
20721;SDS011;10522;52.198;9.890;2023-02-01T14:42:43;0.50;;;0.50;;
20721;SDS011;10522;52.198;9.890;2023-02-01T14:55:35;0.70;;;0.70;;
20721;SDS011;10522;52.198;9.890;2023-02-01T14:58:06;1.00;;;0.80;;
20721;SDS011;10522;52.198;9.890;2023-02-01T15:00:56;4.03;;;0.50;;
20721;SDS011;10522;52.198;9.890;2023-02-01T15:03:28;1.87;;;0.73;;
20721;SDS011;10522;52.198;9.890;2023-02-01T15:06:33;1.37;;;0.77;;
20721;SDS011;10522;52.198;9.890;2023-02-01T15:14:37;0.67;;;0.60;;
20721;SDS011;10522;52.198;9.890;2023-02-01T15:22:21;0.47;;;0.47;;
20721;SDS011;10522;52.198;9.890;2023-02-01T15:24:53;2.33;;;0.80;;
20721;SDS011;10522;52.198;9.890;2023-02-01T15:27:23;0.47;;;0.47;;
20721;SDS011;10522;52.198;9.890;2023-02-01T15:29:50;2.87;;;0.93;;
20721;SDS011;10522;52.198;9.890;2023-02-01T15:32:29;4.83;;;0.90;;
20721;SDS011;10522;52.198;9.890;2023-02-01T15:34:59;1.97;;;0.80;;
20721;SDS011;10522;52.198;9.890;2023-02-01T15:37:26;3.73;;;0.73;;
20721;SDS011;10522;52.198;9.890;2023-02-01T15:40:18;6.63;;;1.13;;
20721;SDS011;10522;52.198;9.890;2023-02-01T15:42:57;3.57;;;0.80;;
20721;SDS011;10522;52.198;9.890;2023-02-01T15:45:28;1.90;;;0.90;;
20721;SDS011;10522;52.198;9.890;2023-02-01T15:47:57;4.37;;;1.10;;
20721;SDS011;10522;52.198;9.890;2023-02-01T15:50:24;4.17;;;1.10;;
20721;SDS011;10522;52.198;9.890;2023-02-01T15:52:53;5.27;;;0.70;;
20721;SDS011;10522;52.198;9.890;2023-02-01T15:55:43;1.23;;;1.07;;
20721;SDS011;10522;52.198;9.890;2023-02-01T15:58:15;1.60;;;1.10;;
20721;SDS011;10522;52.198;9.890;2023-02-01T16:00:53;4.20;;;1.17;;
20721;SDS011;10522;52.198;9.890;2023-02-01T16:06:00;5.03;;;1.23;;
20721;SDS011;10522;52.198;9.890;2023-02-01T16:08:29;7.53;;;1.97;;
20721;SDS011;10522;52.198;9.890;2023-02-01T16:13:34;6.43;;;2.20;;
20721;SDS011;10522;52.198;9.890;2023-02-01T16:16:00;3.90;;;1.23;;
20721;SDS011;10522;52.198;9.890;2023-02-01T16:18:26;5.00;;;1.43;;
20721;SDS011;10522;52.198;9.890;2023-02-01T16:20:52;5.50;;;2.30;;
20721;SDS011;10522;52.198;9.890;2023-02-01T16:23:18;3.87;;;1.10;;
20721;SDS011;10522;52.198;9.890;2023-02-01T16:25:45;4.70;;;1.40;;
20721;SDS011;10522;52.198;9.890;2023-02-01T16:28:11;4.70;;;1.27;;
20721;SDS011;10522;52.198;9.890;2023-02-01T16:30:37;6.70;;;1.27;;
20721;SDS011;10522;52.198;9.890;2023-02-01T16:33:02;5.27;;;1.40;;
20721;SDS011;10522;52.198;9.890;2023-02-01T16:35:34;3.60;;;1.37;;
20721;SDS011;10522;52.198;9.890;2023-02-01T16:38:05;8.40;;;1.70;;
20721;SDS011;10522;52.198;9.890;2023-02-01T16:40:37;15.93;;;3.33;;
20721;SDS011;10522;52.198;9.890;2023-02-01T16:43:07;3.87;;;1.27;;
20721;SDS011;10522;52.198;9.890;2023-02-01T16:45:55;2.10;;;1.17;;
20721;SDS011;10522;52.198;9.890;2023-02-01T16:48:26;3.13;;;1.57;;
20721;SDS011;10522;52.198;9.890;2023-02-01T16:51:01;6.00;;;2.20;;
20721;SDS011;10522;52.198;9.890;2023-02-01T16:53:34;7.27;;;1.53;;
20721;SDS011;10522;52.198;9.890;2023-02-01T16:56:00;8.93;;;1.67;;
20721;SDS011;10522;52.198;9.890;2023-02-01T16:58:27;4.70;;;1.93;;
20721;SDS011;10522;52.198;9.890;2023-02-01T17:00:53;8.17;;;2.47;;
20721;SDS011;10522;52.198;9.890;2023-02-01T17:03:19;7.33;;;1.63;;
20721;SDS011;10522;52.198;9.890;2023-02-01T17:05:55;4.77;;;1.53;;
20721;SDS011;10522;52.198;9.890;2023-02-01T17:08:25;6.77;;;2.07;;
20721;SDS011;10522;52.198;9.890;2023-02-01T17:10:54;8.43;;;1.63;;
20721;SDS011;10522;52.198;9.890;2023-02-01T17:13:20;7.40;;;1.47;;
20721;SDS011;10522;52.198;9.890;2023-02-01T17:15:49;9.90;;;1.90;;
20721;SDS011;10522;52.198;9.890;2023-02-01T17:18:29;4.37;;;1.10;;